sensor_id;sensor_type;location;lat;lon;timestamp;pressure;altitude;pressure_sealevel;temperature;humidity
49459;BME280;35354;51.296;16.924;2023-04-04T00:00:23;100753.75;;;1.35;70.87
49459;BME280;35354;51.296;16.924;2023-04-04T00:02:48;100714.22;;;1.16;70.70
49459;BME280;35354;51.296;16.924;2023-04-04T00:05:14;100745.78;;;1.09;71.07
49459;BME280;35354;51.296;16.924;2023-04-04T00:07:39;100745.69;;;1.00;71.95
49459;BME280;35354;51.296;16.924;2023-04-04T00:10:05;100691.56;;;0.69;72.45
49459;BME280;35354;51.296;16.924;2023-04-04T00:12:30;100719.97;;;0.92;72.92
49459;BME280;35354;51.296;16.924;2023-04-04T00:14:56;100725.09;;;0.91;72.44
49459;BME280;35354;51.296;16.924;2023-04-04T00:17:21;100712.22;;;0.88;72.72
49459;BME280;35354;51.296;16.924;2023-04-04T00:19:46;100707.00;;;0.77;72.84
49459;BME280;35354;51.296;16.924;2023-04-04T00:22:12;100725.06;;;0.86;73.21
49459;BME280;35354;51.296;16.924;2023-04-04T00:24:40;100683.03;;;0.75;73.12
49459;BME280;35354;51.296;16.924;2023-04-04T00:27:05;100720.88;;;0.96;73.10
49459;BME280;35354;51.296;16.924;2023-04-04T00:29:31;100724.41;;;1.06;72.96
49459;BME280;35354;51.296;16.924;2023-04-04T00:31:58;100664.19;;;0.68;72.71
49459;BME280;35354;51.296;16.924;2023-04-04T00:34:24;100698.31;;;0.63;73.91
49459;BME280;35354;51.296;16.924;2023-04-04T00:36:49;100665.88;;;0.63;73.80
49459;BME280;35354;51.296;16.924;2023-04-04T00:39:14;100708.81;;;0.86;73.96
49459;BME280;35354;51.296;16.924;2023-04-04T00:41:40;100687.34;;;0.78;73.57
49459;BME280;35354;51.296;16.924;2023-04-04T00:44:05;100702.84;;;0.88;73.64
49459;BME280;35354;51.296;16.924;2023-04-04T00:46:31;100689.06;;;0.79;73.38
49459;BME280;35354;51.296;16.924;2023-04-04T00:48:57;100680.53;;;0.80;73.11
49459;BME280;35354;51.296;16.924;2023-04-04T00:51:23;100674.63;;;0.88;73.07
49459;BME280;35354;51.296;16.924;2023-04-04T00:53:49;100693.56;;;1.03;73.04
49459;BME280;35354;51.296;16.924;2023-04-04T00:56:15;100706.50;;;1.15;73.14
49459;BME280;35354;51.296;16.924;2023-04-04T00:58:42;100690.91;;;0.89;73.22
49459;BME280;35354;51.296;16.924;2023-04-04T01:01:08;100680.63;;;0.89;73.59
49459;BME280;35354;51.296;16.924;2023-04-04T01:03:36;100693.63;;;1.06;72.93
49459;BME280;35354;51.296;16.924;2023-04-04T01:06:04;100671.16;;;0.83;73.39
49459;BME280;35354;51.296;16.924;2023-04-04T01:08:30;100679.78;;;0.90;73.37
49459;BME280;35354;51.296;16.924;2023-04-04T01:10:56;100687.53;;;0.94;73.49
49459;BME280;35354;51.296;16.924;2023-04-04T01:13:22;100690.13;;;0.97;73.28
49459;BME280;35354;51.296;16.924;2023-04-04T01:15:47;100686.66;;;0.94;73.12
49459;BME280;35354;51.296;16.924;2023-04-04T01:18:14;100685.69;;;0.81;73.51
49459;BME280;35354;51.296;16.924;2023-04-04T01:20:49;100673.50;;;0.60;73.07
49459;BME280;35354;51.296;16.924;2023-04-04T01:23:16;100658.94;;;0.58;73.22
49459;BME280;35354;51.296;16.924;2023-04-04T01:25:42;100651.34;;;0.64;72.99
49459;BME280;35354;51.296;16.924;2023-04-04T01:28:08;100668.34;;;0.57;73.45
49459;BME280;35354;51.296;16.924;2023-04-04T01:30:35;100671.88;;;0.70;73.11
49459;BME280;35354;51.296;16.924;2023-04-04T01:33:09;100653.13;;;0.75;73.71
49459;BME280;35354;51.296;16.924;2023-04-04T01:35:39;100672.88;;;0.81;73.60
49459;BME280;35354;51.296;16.924;2023-04-04T01:40:58;100660.91;;;0.80;73.73
49459;BME280;35354;51.296;16.924;2023-04-04T01:43:25;100652.03;;;0.49;73.45
49459;BME280;35354;51.296;16.924;2023-04-04T01:45:50;100592.78;;;0.18;74.04
49459;BME280;35354;51.296;16.924;2023-04-04T01:48:15;100653.09;;;0.69;74.27
49459;BME280;35354;51.296;16.924;2023-04-04T01:50:41;100658.34;;;0.82;74.11
49459;BME280;35354;51.296;16.924;2023-04-04T01:53:06;100644.41;;;0.57;73.01
49459;BME280;35354;51.296;16.924;2023-04-04T01:55:31;100639.28;;;0.57;73.81
49459;BME280;35354;51.296;16.924;2023-04-04T01:57:57;100610.00;;;0.33;74.40
49459;BME280;35354;51.296;16.924;2023-04-04T02:00:22;100635.91;;;0.59;73.64
49459;BME280;35354;51.296;16.924;2023-04-04T02:02:48;100640.69;;;0.29;74.62
49459;BME280;35354;51.296;16.924;2023-04-04T02:05:13;100637.28;;;0.28;74.97
49459;BME280;35354;51.296;16.924;2023-04-04T02:07:38;100609.91;;;0.24;75.00
49459;BME280;35354;51.296;16.924;2023-04-04T02:10:04;100623.63;;;0.29;74.91
49459;BME280;35354;51.296;16.924;2023-04-04T02:12:30;100615.06;;;0.29;74.59
49459;BME280;35354;51.296;16.924;2023-04-04T02:14:55;100648.69;;;0.56;74.49
49459;BME280;35354;51.296;16.924;2023-04-04T02:17:20;100650.41;;;0.56;74.45
49459;BME280;35354;51.296;16.924;2023-04-04T02:19:46;100616.59;;;0.11;75.55
49459;BME280;35354;51.296;16.924;2023-04-04T02:22:11;100646.81;;;0.38;75.33
49459;BME280;35354;51.296;16.924;2023-04-04T02:24:37;100646.00;;;0.44;75.52
49459;BME280;35354;51.296;16.924;2023-04-04T02:27:02;100653.84;;;0.59;74.84
49459;BME280;35354;51.296;16.924;2023-04-04T02:29:28;100636.72;;;0.57;74.71
49459;BME280;35354;51.296;16.924;2023-04-04T02:31:53;100611.59;;;0.22;75.39
49459;BME280;35354;51.296;16.924;2023-04-04T02:34:19;100647.72;;;0.43;75.60
49459;BME280;35354;51.296;16.924;2023-04-04T02:36:44;100612.41;;;0.19;76.35
49459;BME280;35354;51.296;16.924;2023-04-04T02:39:09;100616.69;;;0.20;76.12
49459;BME280;35354;51.296;16.924;2023-04-04T02:41:35;100634.63;;;0.19;75.92
49459;BME280;35354;51.296;16.924;2023-04-04T02:44:00;100627.69;;;0.12;76.66
49459;BME280;35354;51.296;16.924;2023-04-04T02:46:25;100600.28;;;0.00;76.64
49459;BME280;35354;51.296;16.924;2023-04-04T02:48:51;100642.97;;;0.03;77.02
49459;BME280;35354;51.296;16.924;2023-04-04T02:51:16;100646.38;;;0.03;77.60
49459;BME280;35354;51.296;16.924;2023-04-04T02:53:42;100645.53;;;0.03;77.16
49459;BME280;35354;51.296;16.924;2023-04-04T02:56:07;100642.16;;;0.07;78.07
49459;BME280;35354;51.296;16.924;2023-04-04T02:58:33;100633.41;;;-0.09;77.77
49459;BME280;35354;51.296;16.924;2023-04-04T03:00:59;100629.09;;;-0.15;78.31
49459;BME280;35354;51.296;16.924;2023-04-04T03:03:25;100642.84;;;-0.07;78.50
49459;BME280;35354;51.296;16.924;2023-04-04T03:05:50;100642.72;;;-0.17;78.81
49459;BME280;35354;51.296;16.924;2023-04-04T03:08:16;100644.47;;;-0.15;79.77
49459;BME280;35354;51.296;16.924;2023-04-04T03:10:43;100644.44;;;-0.16;79.62
49459;BME280;35354;51.296;16.924;2023-04-04T03:13:08;100634.16;;;-0.19;79.19
49459;BME280;35354;51.296;16.924;2023-04-04T03:15:33;100632.50;;;-0.14;79.11
49459;BME280;35354;51.296;16.924;2023-04-04T03:17:59;100651.44;;;-0.03;79.34
49459;BME280;35354;51.296;16.924;2023-04-04T03:20:24;100629.09;;;-0.13;79.31
49459;BME280;35354;51.296;16.924;2023-04-04T03:22:50;100640.28;;;-0.08;79.48
49459;BME280;35354;51.296;16.924;2023-04-04T03:25:15;100641.16;;;-0.08;79.49
49459;BME280;35354;51.296;16.924;2023-04-04T03:27:41;100630.69;;;-0.23;79.51
49459;BME280;35354;51.296;16.924;2023-04-04T03:30:07;100625.53;;;-0.26;79.46
49459;BME280;35354;51.296;16.924;2023-04-04T03:32:33;100653.00;;;-0.13;79.29
49459;BME280;35354;51.296;16.924;2023-04-04T03:34:58;100652.88;;;-0.22;79.27
49459;BME280;35354;51.296;16.924;2023-04-04T03:37:23;100624.50;;;-0.42;80.03
49459;BME280;35354;51.296;16.924;2023-04-04T03:39:49;100644.28;;;-0.29;80.25
49459;BME280;35354;51.296;16.924;2023-04-04T03:42:14;100627.06;;;-0.39;80.12
49459;BME280;35354;51.296;16.924;2023-04-04T03:44:40;100650.03;;;-0.43;80.70
49459;BME280;35354;51.296;16.924;2023-04-04T03:47:06;100656.97;;;-0.36;80.53
49459;BME280;35354;51.296;16.924;2023-04-04T03:49:31;100624.25;;;-0.59;80.96
49459;BME280;35354;51.296;16.924;2023-04-04T03:51:57;100639.84;;;-0.42;80.66
49459;BME280;35354;51.296;16.924;2023-04-04T03:54:23;100640.72;;;-0.40;80.76
49459;BME280;35354;51.296;16.924;2023-04-04T03:56:48;100595.16;;;-0.67;80.33
49459;BME280;35354;51.296;16.924;2023-04-04T03:59:13;100619.81;;;-0.69;80.64
49459;BME280;35354;51.296;16.924;2023-04-04T04:01:39;100633.81;;;-0.45;80.66
49459;BME280;35354;51.296;16.924;2023-04-04T04:04:04;100652.84;;;-0.27;80.53
49459;BME280;35354;51.296;16.924;2023-04-04T04:06:30;100629.06;;;-0.79;80.04
49459;BME280;35354;51.296;16.924;2023-04-04T04:08:56;100630.91;;;-0.68;80.14
49459;BME280;35354;51.296;16.924;2023-04-04T04:11:22;100647.31;;;-0.56;80.00
49459;BME280;35354;51.296;16.924;2023-04-04T04:13:47;100638.91;;;-0.47;79.63
49459;BME280;35354;51.296;16.924;2023-04-04T04:16:13;100655.25;;;-0.37;79.34
49459;BME280;35354;51.296;16.924;2023-04-04T04:18:38;100657.03;;;-0.33;79.24
49459;BME280;35354;51.296;16.924;2023-04-04T04:21:04;100651.56;;;-0.58;79.24
49459;BME280;35354;51.296;16.924;2023-04-04T04:23:30;100656.88;;;-0.44;79.24
49459;BME280;35354;51.296;16.924;2023-04-04T04:25:55;100655.09;;;-0.49;79.01
49459;BME280;35354;51.296;16.924;2023-04-04T04:28:21;100620.88;;;-0.56;78.96
49459;BME280;35354;51.296;16.924;2023-04-04T04:30:47;100654.50;;;-0.30;78.82
49459;BME280;35354;51.296;16.924;2023-04-04T04:33:12;100656.84;;;-0.45;78.76
49459;BME280;35354;51.296;16.924;2023-04-04T04:35:38;100631.13;;;-0.55;78.49
49459;BME280;35354;51.296;16.924;2023-04-04T04:38:06;100656.91;;;-0.41;78.39
49459;BME280;35354;51.296;16.924;2023-04-04T04:40:32;100659.66;;;-0.29;78.86
49459;BME280;35354;51.296;16.924;2023-04-04T04:42:58;100657.09;;;-0.29;78.11
49459;BME280;35354;51.296;16.924;2023-04-04T04:45:23;100629.72;;;-0.33;78.12
49459;BME280;35354;51.296;16.924;2023-04-04T04:47:49;100636.66;;;-0.24;77.83
49459;BME280;35354;51.296;16.924;2023-04-04T04:50:15;100629.78;;;-0.28;77.24
49459;BME280;35354;51.296;16.924;2023-04-04T04:52:40;100620.41;;;-0.28;77.83
49459;BME280;35354;51.296;16.924;2023-04-04T04:55:06;100615.34;;;-0.23;77.70
49459;BME280;35354;51.296;16.924;2023-04-04T04:57:32;100626.38;;;-0.29;77.21
49459;BME280;35354;51.296;16.924;2023-04-04T05:00:01;100656.50;;;-0.08;77.36
49459;BME280;35354;51.296;16.924;2023-04-04T05:02:26;100645.41;;;-0.07;77.03
49459;BME280;35354;51.296;16.924;2023-04-04T05:04:52;100659.88;;;-0.09;77.04
49459;BME280;35354;51.296;16.924;2023-04-04T05:07:17;100631.66;;;-0.15;76.63
49459;BME280;35354;51.296;16.924;2023-04-04T05:09:43;100655.06;;;0.13;76.72
49459;BME280;35354;51.296;16.924;2023-04-04T05:12:08;100621.56;;;-0.03;76.68
49459;BME280;35354;51.296;16.924;2023-04-04T05:14:33;100640.28;;;-0.08;76.29
49459;BME280;35354;51.296;16.924;2023-04-04T05:16:58;100656.72;;;0.12;75.78
49459;BME280;35354;51.296;16.924;2023-04-04T05:19:24;100666.78;;;-0.05;75.14
49459;BME280;35354;51.296;16.924;2023-04-04T05:21:49;100667.66;;;-0.03;75.63
49459;BME280;35354;51.296;16.924;2023-04-04T05:24:14;100632.72;;;0.04;75.05
49459;BME280;35354;51.296;16.924;2023-04-04T05:26:41;100652.56;;;0.17;75.26
49459;BME280;35354;51.296;16.924;2023-04-04T05:29:06;100642.75;;;-0.14;74.57
49459;BME280;35354;51.296;16.924;2023-04-04T05:31:32;100655.66;;;-0.07;74.49
49459;BME280;35354;51.296;16.924;2023-04-04T05:33:57;100657.91;;;-0.30;74.77
49459;BME280;35354;51.296;16.924;2023-04-04T05:36:23;100653.66;;;-0.29;74.62
49459;BME280;35354;51.296;16.924;2023-04-04T05:38:48;100659.25;;;0.08;74.45
49459;BME280;35354;51.296;16.924;2023-04-04T05:41:13;100676.56;;;0.26;74.03
49459;BME280;35354;51.296;16.924;2023-04-04T05:43:39;100633.91;;;0.32;73.83
49459;BME280;35354;51.296;16.924;2023-04-04T05:46:04;100663.16;;;0.51;72.49
49459;BME280;35354;51.296;16.924;2023-04-04T05:48:30;100656.88;;;0.24;71.60
49459;BME280;35354;51.296;16.924;2023-04-04T05:50:55;100658.75;;;0.39;71.50
49459;BME280;35354;51.296;16.924;2023-04-04T05:53:21;100667.31;;;0.41;70.71
49459;BME280;35354;51.296;16.924;2023-04-04T05:55:50;100658.03;;;0.51;71.05
49459;BME280;35354;51.296;16.924;2023-04-04T05:58:15;100642.50;;;0.37;70.37
49459;BME280;35354;51.296;16.924;2023-04-04T06:00:40;100641.78;;;0.47;71.04
49459;BME280;35354;51.296;16.924;2023-04-04T06:03:06;100663.34;;;0.69;69.69
49459;BME280;35354;51.296;16.924;2023-04-04T06:05:31;100668.59;;;0.80;69.95
49459;BME280;35354;51.296;16.924;2023-04-04T06:07:57;100651.22;;;0.55;69.67
49459;BME280;35354;51.296;16.924;2023-04-04T06:10:22;100638.53;;;0.65;69.59
49459;BME280;35354;51.296;16.924;2023-04-04T06:12:47;100668.63;;;0.86;69.00
49459;BME280;35354;51.296;16.924;2023-04-04T06:15:13;100665.41;;;1.09;69.23
49459;BME280;35354;51.296;16.924;2023-04-04T06:17:38;100643.03;;;0.92;68.73
49459;BME280;35354;51.296;16.924;2023-04-04T06:20:04;100658.53;;;1.02;68.25
49459;BME280;35354;51.296;16.924;2023-04-04T06:22:30;100634.53;;;0.98;67.98
49459;BME280;35354;51.296;16.924;2023-04-04T06:24:55;100636.38;;;1.17;67.88
49459;BME280;35354;51.296;16.924;2023-04-04T06:27:21;100647.50;;;1.15;67.47
49459;BME280;35354;51.296;16.924;2023-04-04T06:29:47;100645.78;;;1.17;66.95
49459;BME280;35354;51.296;16.924;2023-04-04T06:32:13;100628.00;;;1.40;67.28
49459;BME280;35354;51.296;16.924;2023-04-04T06:34:38;100629.03;;;1.71;66.31
49459;BME280;35354;51.296;16.924;2023-04-04T06:37:03;100659.09;;;1.98;65.83
49459;BME280;35354;51.296;16.924;2023-04-04T06:39:29;100654.81;;;1.92;64.73
49459;BME280;35354;51.296;16.924;2023-04-04T06:41:55;100627.34;;;1.81;65.67
49459;BME280;35354;51.296;16.924;2023-04-04T06:44:20;100654.59;;;1.53;64.58
49459;BME280;35354;51.296;16.924;2023-04-04T06:46:46;100645.22;;;1.59;65.73
49459;BME280;35354;51.296;16.924;2023-04-04T06:49:12;100629.84;;;1.64;65.54
49459;BME280;35354;51.296;16.924;2023-04-04T06:51:39;100624.69;;;1.59;65.57
49459;BME280;35354;51.296;16.924;2023-04-04T06:54:04;100634.72;;;1.24;66.59
49459;BME280;35354;51.296;16.924;2023-04-04T06:56:30;100624.19;;;0.86;65.76
49459;BME280;35354;51.296;16.924;2023-04-04T06:58:56;100655.72;;;0.79;66.50
49459;BME280;35354;51.296;16.924;2023-04-04T07:01:21;100660.69;;;0.62;67.35
49459;BME280;35354;51.296;16.924;2023-04-04T07:03:46;100651.34;;;0.65;67.56
49459;BME280;35354;51.296;16.924;2023-04-04T07:06:12;100661.69;;;0.74;68.15
49459;BME280;35354;51.296;16.924;2023-04-04T07:08:37;100657.47;;;0.83;67.60
49459;BME280;35354;51.296;16.924;2023-04-04T07:11:03;100647.16;;;0.72;66.36
49459;BME280;35354;51.296;16.924;2023-04-04T07:13:28;100659.09;;;0.73;66.84
49459;BME280;35354;51.296;16.924;2023-04-04T07:15:54;100625.66;;;0.59;66.75
49459;BME280;35354;51.296;16.924;2023-04-04T07:18:19;100653.13;;;0.75;66.10
49459;BME280;35354;51.296;16.924;2023-04-04T07:20:45;100635.06;;;0.62;64.32
49459;BME280;35354;51.296;16.924;2023-04-04T07:23:11;100657.38;;;0.70;62.61
49459;BME280;35354;51.296;16.924;2023-04-04T07:25:37;100654.84;;;0.72;64.18
49459;BME280;35354;51.296;16.924;2023-04-04T07:28:02;100615.38;;;0.56;64.95
49459;BME280;35354;51.296;16.924;2023-04-04T07:30:28;100630.91;;;0.73;64.07
49459;BME280;35354;51.296;16.924;2023-04-04T07:32:57;100655.78;;;0.82;62.33
49459;BME280;35354;51.296;16.924;2023-04-04T07:35:23;100629.13;;;0.64;62.77
49459;BME280;35354;51.296;16.924;2023-04-04T07:37:48;100662.63;;;0.83;62.39
49459;BME280;35354;51.296;16.924;2023-04-04T07:40:15;100626.50;;;0.61;62.53
49459;BME280;35354;51.296;16.924;2023-04-04T07:42:47;100655.84;;;0.91;62.88
49459;BME280;35354;51.296;16.924;2023-04-04T07:45:16;100653.38;;;1.03;62.35
49459;BME280;35354;51.296;16.924;2023-04-04T07:47:43;100659.44;;;1.11;61.62
49459;BME280;35354;51.296;16.924;2023-04-04T07:50:09;100656.00;;;1.06;61.16
49459;BME280;35354;51.296;16.924;2023-04-04T07:52:34;100619.09;;;0.92;62.61
49459;BME280;35354;51.296;16.924;2023-04-04T07:55:00;100661.19;;;1.17;60.82
49459;BME280;35354;51.296;16.924;2023-04-04T07:57:27;100653.63;;;1.38;60.80
49459;BME280;35354;51.296;16.924;2023-04-04T07:59:52;100647.84;;;1.71;59.03
49459;BME280;35354;51.296;16.924;2023-04-04T08:02:18;100610.84;;;1.34;58.53
49459;BME280;35354;51.296;16.924;2023-04-04T08:04:43;100649.31;;;1.30;60.00
49459;BME280;35354;51.296;16.924;2023-04-04T08:07:08;100638.84;;;1.05;60.51
49459;BME280;35354;51.296;16.924;2023-04-04T08:09:33;100655.09;;;1.04;59.62
49459;BME280;35354;51.296;16.924;2023-04-04T08:12:01;100648.22;;;1.00;59.02
49459;BME280;35354;51.296;16.924;2023-04-04T08:14:27;100647.44;;;1.07;60.11
49459;BME280;35354;51.296;16.924;2023-04-04T08:16:52;100651.69;;;1.02;59.40
49459;BME280;35354;51.296;16.924;2023-04-04T08:19:18;100644.78;;;0.93;60.37
49459;BME280;35354;51.296;16.924;2023-04-04T08:21:43;100652.44;;;0.92;60.97
49459;BME280;35354;51.296;16.924;2023-04-04T08:24:11;100651.53;;;0.88;60.31
49459;BME280;35354;51.296;16.924;2023-04-04T08:26:36;100608.53;;;0.55;61.50
49459;BME280;35354;51.296;16.924;2023-04-04T08:29:02;100581.94;;;0.45;61.07
49459;BME280;35354;51.296;16.924;2023-04-04T08:31:27;100636.94;;;0.80;62.02
49459;BME280;35354;51.296;16.924;2023-04-04T08:33:54;100642.09;;;0.84;61.76
49459;BME280;35354;51.296;16.924;2023-04-04T08:36:19;100640.34;;;0.79;62.63
49459;BME280;35354;51.296;16.924;2023-04-04T08:38:45;100640.38;;;0.83;62.38
49459;BME280;35354;51.296;16.924;2023-04-04T08:41:11;100633.53;;;0.82;63.70
49459;BME280;35354;51.296;16.924;2023-04-04T08:43:38;100613.03;;;0.82;62.40
49459;BME280;35354;51.296;16.924;2023-04-04T08:46:06;100627.69;;;0.98;62.25
49459;BME280;35354;51.296;16.924;2023-04-04T08:48:34;100619.16;;;0.98;61.42
49459;BME280;35354;51.296;16.924;2023-04-04T08:51:01;100613.94;;;0.89;61.77
49459;BME280;35354;51.296;16.924;2023-04-04T08:53:28;100617.47;;;1.02;62.26
49459;BME280;35354;51.296;16.924;2023-04-04T08:55:54;100626.00;;;0.99;61.80
49459;BME280;35354;51.296;16.924;2023-04-04T08:58:19;100633.69;;;0.99;62.18
49459;BME280;35354;51.296;16.924;2023-04-04T09:00:45;100612.22;;;0.86;63.27
49459;BME280;35354;51.296;16.924;2023-04-04T09:03:19;100631.13;;;0.97;62.63
49459;BME280;35354;51.296;16.924;2023-04-04T09:05:48;100619.16;;;0.98;60.92
49459;BME280;35354;51.296;16.924;2023-04-04T09:08:15;100624.44;;;1.21;62.42
49459;BME280;35354;51.296;16.924;2023-04-04T09:10:43;100618.63;;;1.49;62.17
49459;BME280;35354;51.296;16.924;2023-04-04T09:13:09;100602.34;;;1.47;61.41
49459;BME280;35354;51.296;16.924;2023-04-04T09:15:37;100618.66;;;1.54;61.06
49459;BME280;35354;51.296;16.924;2023-04-04T09:18:03;100610.06;;;1.46;60.06
49459;BME280;35354;51.296;16.924;2023-04-04T09:23:06;100631.56;;;1.60;60.40
49459;BME280;35354;51.296;16.924;2023-04-04T09:25:36;100615.28;;;1.61;59.08
49459;BME280;35354;51.296;16.924;2023-04-04T09:28:02;100628.19;;;1.69;59.28
49459;BME280;35354;51.296;16.924;2023-04-04T09:30:33;100577.50;;;1.36;59.48
49459;BME280;35354;51.296;16.924;2023-04-04T09:33:10;100627.22;;;1.55;59.47
49459;BME280;35354;51.296;16.924;2023-04-04T09:35:37;100605.69;;;1.34;60.16
49459;BME280;35354;51.296;16.924;2023-04-04T09:38:07;100601.47;;;1.39;60.70
49459;BME280;35354;51.296;16.924;2023-04-04T09:40:36;100625.59;;;1.66;60.43
49459;BME280;35354;51.296;16.924;2023-04-04T09:43:03;100598.97;;;1.48;59.87
49459;BME280;35354;51.296;16.924;2023-04-04T09:45:32;100610.97;;;1.53;59.71
49459;BME280;35354;51.296;16.924;2023-04-04T09:47:58;100600.69;;;1.54;61.09
49459;BME280;35354;51.296;16.924;2023-04-04T09:50:25;100598.09;;;1.49;59.82
49459;BME280;35354;51.296;16.924;2023-04-04T09:52:55;100625.56;;;1.67;60.15
49459;BME280;35354;51.296;16.924;2023-04-04T09:55:30;100597.34;;;1.69;59.82
49459;BME280;35354;51.296;16.924;2023-04-04T09:57:56;100636.78;;;1.79;58.56
49459;BME280;35354;51.296;16.924;2023-04-04T10:00:21;100619.59;;;1.67;58.61
49459;BME280;35354;51.296;16.924;2023-04-04T10:02:47;100633.34;;;1.81;59.59
49459;BME280;35354;51.296;16.924;2023-04-04T10:05:15;100586.22;;;1.65;58.65
49459;BME280;35354;51.296;16.924;2023-04-04T10:07:40;100610.28;;;1.90;60.13
49459;BME280;35354;51.296;16.924;2023-04-04T10:10:08;100594.84;;;1.87;59.21
49459;BME280;35354;51.296;16.924;2023-04-04T10:12:37;100580.25;;;1.80;58.71
49459;BME280;35354;51.296;16.924;2023-04-04T10:15:03;100606.03;;;1.94;58.33
49459;BME280;35354;51.296;16.924;2023-04-04T10:17:35;100594.88;;;1.93;58.29
49459;BME280;35354;51.296;16.924;2023-04-04T10:20:04;100570.84;;;1.79;58.68
49459;BME280;35354;51.296;16.924;2023-04-04T10:22:34;100588.00;;;1.82;58.25
49459;BME280;35354;51.296;16.924;2023-04-04T10:25:00;100587.94;;;1.75;58.72
49459;BME280;35354;51.296;16.924;2023-04-04T10:27:25;100578.47;;;1.62;59.33
49459;BME280;35354;51.296;16.924;2023-04-04T10:29:51;100569.06;;;1.57;60.06
49459;BME280;35354;51.296;16.924;2023-04-04T10:32:27;100605.94;;;1.80;60.13
49459;BME280;35354;51.296;16.924;2023-04-04T10:35:01;100587.97;;;1.80;60.10
49459;BME280;35354;51.296;16.924;2023-04-04T10:37:31;100593.16;;;1.86;60.52
49459;BME280;35354;51.296;16.924;2023-04-04T10:40:33;100601.78;;;2.13;61.26
49459;BME280;35354;51.296;16.924;2023-04-04T10:43:02;100615.53;;;2.22;60.89
49459;BME280;35354;51.296;16.924;2023-04-04T10:45:28;100598.34;;;2.09;59.65
49459;BME280;35354;51.296;16.924;2023-04-04T10:47:58;100580.31;;;1.91;60.56
49459;BME280;35354;51.296;16.924;2023-04-04T10:50:25;100592.34;;;2.06;62.23
49459;BME280;35354;51.296;16.924;2023-04-04T10:52:51;100593.19;;;2.05;61.99
49459;BME280;35354;51.296;16.924;2023-04-04T10:55:17;100596.59;;;1.94;61.39
49459;BME280;35354;51.296;16.924;2023-04-04T10:57:48;100595.78;;;2.08;62.16
49459;BME280;35354;51.296;16.924;2023-04-04T11:00:17;100594.13;;;2.28;62.42
49459;BME280;35354;51.296;16.924;2023-04-04T11:02:56;100596.69;;;2.36;61.52
49459;BME280;35354;51.296;16.924;2023-04-04T11:10:26;100596.63;;;1.99;62.48
49459;BME280;35354;51.296;16.924;2023-04-04T11:12:54;100598.34;;;2.06;62.22
49459;BME280;35354;51.296;16.924;2023-04-04T11:15:21;100588.94;;;2.17;63.43
49459;BME280;35354;51.296;16.924;2023-04-04T11:20:17;100592.44;;;2.42;62.04
49459;BME280;35354;51.296;16.924;2023-04-04T11:22:44;100587.31;;;2.73;62.53
49459;BME280;35354;51.296;16.924;2023-04-04T11:27:55;100551.28;;;2.94;61.43
49459;BME280;35354;51.296;16.924;2023-04-04T11:30:20;100548.72;;;2.81;61.50
49459;BME280;35354;51.296;16.924;2023-04-04T11:32:50;100577.91;;;2.84;61.93
49459;BME280;35354;51.296;16.924;2023-04-04T11:35:16;100554.75;;;2.80;62.25
49459;BME280;35354;51.296;16.924;2023-04-04T11:40:16;100565.91;;;2.91;60.66
49459;BME280;35354;51.296;16.924;2023-04-04T11:42:42;100550.44;;;2.72;60.68
49459;BME280;35354;51.296;16.924;2023-04-04T11:45:08;100559.03;;;2.64;61.03
49459;BME280;35354;51.296;16.924;2023-04-04T11:47:37;100547.88;;;2.37;61.34
49459;BME280;35354;51.296;16.924;2023-04-04T11:50:07;100559.00;;;2.30;61.29
49459;BME280;35354;51.296;16.924;2023-04-04T11:52:34;100559.00;;;2.35;61.95
49459;BME280;35354;51.296;16.924;2023-04-04T11:54:59;100543.59;;;2.47;61.41
49459;BME280;35354;51.296;16.924;2023-04-04T11:57:24;100518.72;;;2.47;61.79
49459;BME280;35354;51.296;16.924;2023-04-04T11:59:50;100564.16;;;2.90;61.97
49459;BME280;35354;51.296;16.924;2023-04-04T12:02:22;100552.16;;;2.92;62.49
49459;BME280;35354;51.296;16.924;2023-04-04T12:04:50;100570.16;;;2.95;62.32
49459;BME280;35354;51.296;16.924;2023-04-04T12:07:16;100546.16;;;2.79;62.95
49459;BME280;35354;51.296;16.924;2023-04-04T12:09:41;100529.03;;;2.58;62.72
49459;BME280;35354;51.296;16.924;2023-04-04T12:12:14;100547.88;;;2.63;63.72
49459;BME280;35354;51.296;16.924;2023-04-04T12:14:43;100552.16;;;2.81;63.21
49459;BME280;35354;51.296;16.924;2023-04-04T12:17:08;100556.44;;;2.90;62.82
49459;BME280;35354;51.296;16.924;2023-04-04T12:19:38;100542.72;;;2.85;63.39
49459;BME280;35354;51.296;16.924;2023-04-04T12:22:04;100524.69;;;3.08;63.62
49459;BME280;35354;51.296;16.924;2023-04-04T12:24:32;100540.06;;;3.41;62.31
49459;BME280;35354;51.296;16.924;2023-04-04T12:26:57;100512.53;;;3.45;61.63
49459;BME280;35354;51.296;16.924;2023-04-04T12:29:25;100525.41;;;3.56;60.14
49459;BME280;35354;51.296;16.924;2023-04-04T12:31:52;100532.38;;;3.24;59.38
49459;BME280;35354;51.296;16.924;2023-04-04T12:34:21;100528.06;;;3.23;59.04
49459;BME280;35354;51.296;16.924;2023-04-04T12:36:51;100547.78;;;3.35;60.39
49459;BME280;35354;51.296;16.924;2023-04-04T12:39:18;100522.97;;;3.13;59.69
49459;BME280;35354;51.296;16.924;2023-04-04T12:41:56;100527.28;;;3.00;59.47
49459;BME280;35354;51.296;16.924;2023-04-04T12:44:33;100547.00;;;3.09;59.21
49459;BME280;35354;51.296;16.924;2023-04-04T12:47:00;100538.44;;;2.93;59.51
49459;BME280;35354;51.296;16.924;2023-04-04T12:49:28;100510.16;;;2.91;60.90
49459;BME280;35354;51.296;16.924;2023-04-04T12:51:54;100520.41;;;2.99;58.48
49459;BME280;35354;51.296;16.924;2023-04-04T12:54:28;100535.00;;;3.08;59.83
49459;BME280;35354;51.296;16.924;2023-04-04T12:56:57;100506.66;;;3.03;59.73
49459;BME280;35354;51.296;16.924;2023-04-04T12:59:27;100504.97;;;3.02;59.12
49459;BME280;35354;51.296;16.924;2023-04-04T13:01:53;100526.38;;;3.25;58.13